createdAt,value
2018-08-22T00:00:23.438Z,23.45
2018-08-22T00:02:52.578Z,23.40
2018-08-22T00:05:21.710Z,23.43
2018-08-22T00:07:50.986Z,23.36
2018-08-22T00:10:20.106Z,23.29
2018-08-22T00:12:49.247Z,23.19
2018-08-22T00:15:18.485Z,23.10
2018-08-22T00:17:47.506Z,23.03
2018-08-22T00:20:16.735Z,23.06
2018-08-22T00:22:45.966Z,23.04
2018-08-22T00:25:15.163Z,23.03
2018-08-22T00:27:44.256Z,23.00
2018-08-22T00:30:13.377Z,22.97
2018-08-22T00:32:42.522Z,22.92
2018-08-22T00:35:11.653Z,22.86
2018-08-22T00:37:40.814Z,22.77
2018-08-22T00:40:09.937Z,22.74
2018-08-22T00:42:39.083Z,22.76
2018-08-22T00:45:08.341Z,22.77
2018-08-22T00:47:37.471Z,22.75
2018-08-22T00:50:06.615Z,22.72
2018-08-22T00:52:35.750Z,22.63
2018-08-22T00:55:04.888Z,22.53
2018-08-22T00:57:34.018Z,22.56
2018-08-22T01:00:03.154Z,22.57
2018-08-22T01:02:32.282Z,22.55
2018-08-22T01:05:01.428Z,22.57
2018-08-22T01:07:30.553Z,22.54
2018-08-22T01:10:00.303Z,22.51
2018-08-22T01:12:31.498Z,22.44
2018-08-22T01:15:00.810Z,22.34
2018-08-22T01:17:30.814Z,22.37
2018-08-22T01:20:00.991Z,22.36
2018-08-22T01:22:30.286Z,22.35
2018-08-22T01:24:59.426Z,22.34
2018-08-22T01:27:28.566Z,22.37
2018-08-22T01:29:57.713Z,22.35
2018-08-22T01:32:26.841Z,22.32
2018-08-22T01:34:55.985Z,22.34
2018-08-22T01:37:25.110Z,22.35
2018-08-22T01:39:54.258Z,22.37
2018-08-22T01:42:23.389Z,22.27
2018-08-22T01:44:52.529Z,22.24
2018-08-22T01:47:21.666Z,22.20
2018-08-22T01:49:50.802Z,22.24
2018-08-22T01:52:19.937Z,22.27
2018-08-22T01:54:49.125Z,22.25
2018-08-22T01:57:18.249Z,22.21
2018-08-22T01:59:47.397Z,22.21
2018-08-22T02:02:16.521Z,22.14
2018-08-22T02:04:45.658Z,22.12
2018-08-22T02:07:14.805Z,22.10
2018-08-22T02:09:43.942Z,22.09
2018-08-22T02:12:13.074Z,22.11
2018-08-22T02:14:42.216Z,22.08
2018-08-22T02:17:11.350Z,22.02
2018-08-22T02:19:40.478Z,21.98
2018-08-22T02:22:09.602Z,22.01
2018-08-22T02:24:38.737Z,21.95
2018-08-22T02:27:07.872Z,21.84
2018-08-22T02:29:37.005Z,21.78
2018-08-22T02:32:06.807Z,21.76
2018-08-22T02:34:35.951Z,21.74
2018-08-22T02:37:05.190Z,21.71
2018-08-22T02:39:34.329Z,21.66
2018-08-22T02:42:04.907Z,21.63
2018-08-22T02:44:34.078Z,21.62
2018-08-22T02:47:03.998Z,21.57
2018-08-22T02:49:34.039Z,21.58
2018-08-22T02:52:05.025Z,21.58
2018-08-22T02:54:34.264Z,21.55
2018-08-22T02:57:04.369Z,21.56
2018-08-22T02:59:33.513Z,21.55
2018-08-22T03:02:02.647Z,21.53
2018-08-22T03:04:31.781Z,21.56
2018-08-22T03:07:00.902Z,21.56
2018-08-22T03:09:30.051Z,21.61
2018-08-22T03:11:59.173Z,21.56
2018-08-22T03:14:28.321Z,21.53
2018-08-22T03:16:57.463Z,21.54
2018-08-22T03:19:26.612Z,21.56
2018-08-22T03:21:55.768Z,21.49
2018-08-22T03:24:24.905Z,21.50
2018-08-22T03:26:54.118Z,21.42
2018-08-22T03:29:23.257Z,21.38
2018-08-22T03:31:52.408Z,21.36
2018-08-22T03:34:21.542Z,21.35
2018-08-22T03:36:50.702Z,21.40
2018-08-22T03:39:22.843Z,21.32
2018-08-22T03:41:52.051Z,21.39
2018-08-22T03:44:21.194Z,21.27
2018-08-22T03:46:50.336Z,21.29
2018-08-22T03:49:19.475Z,21.26
2018-08-22T03:51:48.609Z,21.25
2018-08-22T03:54:17.742Z,21.22
2018-08-22T03:56:46.894Z,21.11
2018-08-22T03:59:16.031Z,21.15
2018-08-22T04:01:45.169Z,21.13
2018-08-22T04:04:14.300Z,21.17
2018-08-22T04:06:43.434Z,21.15
2018-08-22T04:09:12.565Z,21.13
2018-08-22T04:11:41.746Z,21.13
2018-08-22T04:14:10.874Z,21.06
2018-08-22T04:16:40.027Z,21.06
2018-08-22T04:19:09.155Z,21.06
2018-08-22T04:21:38.990Z,21.03
2018-08-22T04:24:08.126Z,21.02
2018-08-22T04:26:37.881Z,21.02
2018-08-22T04:29:07.974Z,20.98
2018-08-22T04:31:38.000Z,21.00
2018-08-22T04:34:08.219Z,21.01
2018-08-22T04:36:38.351Z,21.01
2018-08-22T04:39:09.643Z,20.92
2018-08-22T04:41:38.802Z,20.92
2018-08-22T04:44:08.870Z,20.94
2018-08-22T04:46:38.979Z,20.97
2018-08-22T04:49:09.030Z,20.90
2018-08-22T04:51:39.183Z,20.87
2018-08-22T04:54:09.269Z,20.85
2018-08-22T04:56:40.473Z,20.90
2018-08-22T04:59:10.983Z,20.92
2018-08-22T05:01:40.127Z,20.91
2018-08-22T05:04:09.659Z,20.97
2018-08-22T05:06:39.769Z,20.90
2018-08-22T05:09:10.350Z,20.95
2018-08-22T05:11:39.891Z,20.96
2018-08-22T05:14:10.047Z,20.96
2018-08-22T05:16:41.171Z,21.00
2018-08-22T05:19:11.386Z,20.98
2018-08-22T05:21:40.532Z,20.97
2018-08-22T05:24:10.405Z,20.94
2018-08-22T05:26:39.567Z,20.89
2018-08-22T05:29:08.739Z,20.95
2018-08-22T05:31:37.873Z,21.00
2018-08-22T05:34:07.127Z,21.10
2018-08-22T05:36:36.271Z,21.17
2018-08-22T05:39:10.454Z,21.07
2018-08-22T05:47:49.455Z,21.03
2018-08-22T05:50:18.591Z,21.16
2018-08-22T05:52:47.738Z,21.34
2018-08-22T05:55:16.885Z,21.32
2018-08-22T05:57:46.046Z,21.47
2018-08-22T06:00:15.177Z,21.47
2018-08-22T06:02:44.317Z,21.56
2018-08-22T06:05:13.451Z,21.66
2018-08-22T06:07:42.880Z,21.68
2018-08-22T06:10:12.350Z,21.76
2018-08-22T06:12:42.488Z,21.82
2018-08-22T06:15:12.608Z,21.90
2018-08-22T06:17:42.632Z,21.97
2018-08-22T06:20:12.906Z,22.05
2018-08-22T06:22:42.055Z,22.15
2018-08-22T06:25:11.183Z,22.19
2018-08-22T06:27:40.462Z,22.30
2018-08-22T06:30:10.905Z,22.34
2018-08-22T06:32:40.095Z,22.42
2018-08-22T06:35:09.240Z,22.49
2018-08-22T06:37:38.373Z,22.54
2018-08-22T06:40:07.509Z,22.62
2018-08-22T06:42:36.649Z,22.72
2018-08-22T06:45:07.371Z,22.80
2018-08-22T06:47:36.554Z,22.87
2018-08-22T06:50:05.968Z,22.94
2018-08-22T06:52:35.115Z,23.03
2018-08-22T06:55:04.261Z,23.14
2018-08-22T06:57:33.419Z,23.18
2018-08-22T07:00:02.571Z,23.31
2018-08-22T07:02:31.727Z,23.39
2018-08-22T07:05:00.919Z,23.48
2018-08-22T07:07:30.061Z,23.56
2018-08-22T07:09:59.190Z,23.63
2018-08-22T07:12:28.329Z,23.69
2018-08-22T07:14:57.471Z,23.75
2018-08-22T07:17:26.620Z,23.80
2018-08-22T07:19:55.763Z,24.01
2018-08-22T07:22:24.908Z,24.07
2018-08-22T07:24:54.049Z,24.23
2018-08-22T07:27:23.356Z,24.40
2018-08-22T07:29:52.532Z,24.51
2018-08-22T07:32:23.054Z,24.68
2018-08-22T07:34:52.190Z,24.76
2018-08-22T07:37:22.207Z,24.89
2018-08-22T07:39:52.302Z,25.14
2018-08-22T07:42:22.677Z,25.35
2018-08-22T07:44:52.751Z,25.55
2018-08-22T07:47:22.787Z,25.49
2018-08-22T07:49:52.788Z,25.50
2018-08-22T07:52:22.793Z,25.73
2018-08-22T07:54:52.922Z,25.71
2018-08-22T07:57:24.216Z,25.79
2018-08-22T07:59:53.830Z,25.94
2018-08-22T08:02:23.067Z,26.27
2018-08-22T08:04:53.090Z,26.30
2018-08-22T08:07:23.100Z,26.52
2018-08-22T08:09:52.233Z,26.59
2018-08-22T08:12:25.663Z,26.80
2018-08-22T08:15:00.141Z,26.94
2018-08-22T08:17:29.275Z,26.95
2018-08-22T08:19:58.411Z,27.03
2018-08-22T08:22:27.556Z,27.10
2018-08-22T08:24:56.705Z,27.24
2018-08-22T08:27:25.854Z,27.34
2018-08-22T08:29:54.999Z,27.35
2018-08-22T08:32:24.135Z,27.47
2018-08-22T08:34:53.287Z,27.48
2018-08-22T08:37:22.441Z,27.59
2018-08-22T08:39:51.559Z,27.78
2018-08-22T08:42:20.719Z,27.92
2018-08-22T08:44:50.256Z,28.13
2018-08-22T08:47:20.063Z,28.22
2018-08-22T08:49:49.198Z,28.39
2018-08-22T08:52:18.409Z,28.50
2018-08-22T08:54:47.546Z,28.65
2018-08-22T08:57:17.505Z,28.75
2018-08-22T08:59:47.355Z,28.75
2018-08-22T09:02:18.407Z,29.11
2018-08-22T09:04:47.563Z,29.14
2018-08-22T09:07:18.802Z,29.00
2018-08-22T09:09:48.062Z,29.11
2018-08-22T09:12:18.022Z,29.24
2018-08-22T09:14:47.147Z,29.22
2018-08-22T09:17:16.456Z,29.27
2018-08-22T09:19:45.574Z,29.37
2018-08-22T09:22:14.723Z,29.42
2018-08-22T09:24:43.868Z,29.68
2018-08-22T09:27:12.990Z,29.78
2018-08-22T09:29:42.155Z,29.76
2018-08-22T09:32:11.267Z,29.80
2018-08-22T09:34:40.415Z,29.88
2018-08-22T09:37:09.545Z,29.91
2018-08-22T09:39:38.697Z,30.18
2018-08-22T09:42:07.822Z,30.10
2018-08-22T09:44:36.964Z,30.09
2018-08-22T09:47:06.094Z,30.12
2018-08-22T09:49:35.244Z,30.36
2018-08-22T09:52:04.383Z,30.27
2018-08-22T09:54:44.433Z,29.94
2018-08-22T09:57:13.492Z,30.01
2018-08-22T09:59:42.632Z,30.07
2018-08-22T10:02:11.779Z,30.19
2018-08-22T10:04:40.926Z,30.16
2018-08-22T10:07:10.184Z,30.30
2018-08-22T10:09:39.301Z,30.52
2018-08-22T10:12:08.426Z,30.77
2018-08-22T10:14:37.575Z,31.01
2018-08-22T10:17:06.801Z,30.97
2018-08-22T10:19:36.028Z,30.93
2018-08-22T10:22:05.124Z,31.01
2018-08-22T10:24:35.644Z,31.12
2018-08-22T10:27:04.849Z,31.09
2018-08-22T10:29:34.516Z,30.92
2018-08-22T10:32:03.650Z,30.97
2018-08-22T10:34:34.625Z,31.07
2018-08-22T10:37:03.757Z,31.05
2018-08-22T10:44:37.853Z,31.36
2018-08-22T10:47:06.981Z,31.40
2018-08-22T10:49:36.114Z,31.40
2018-08-22T10:52:05.245Z,31.48
2018-08-22T10:54:34.384Z,31.48
2018-08-22T10:57:04.146Z,31.53
2018-08-22T10:59:34.127Z,31.56
2018-08-22T11:02:04.177Z,31.43
2018-08-22T11:04:33.269Z,31.39
2018-08-22T11:07:02.408Z,31.33
2018-08-22T11:09:31.543Z,31.28
2018-08-22T11:12:00.693Z,31.23
2018-08-22T11:14:29.939Z,31.24
2018-08-22T11:16:59.089Z,31.20
2018-08-22T11:19:28.210Z,31.22
2018-08-22T11:22:14.496Z,31.25
2018-08-22T11:25:00.776Z,31.30
2018-08-22T11:27:46.734Z,31.30
2018-08-22T11:30:33.022Z,31.09
2018-08-22T11:33:19.388Z,30.99
2018-08-22T11:35:47.063Z,30.90
2018-08-22T11:38:16.201Z,30.74
2018-08-22T11:40:45.359Z,30.73
2018-08-22T11:43:14.486Z,30.69
2018-08-22T11:45:43.615Z,30.66
2018-08-22T11:48:12.759Z,30.55
2018-08-22T11:50:41.890Z,30.54
2018-08-22T11:53:11.039Z,30.45
2018-08-22T11:55:40.179Z,30.34
2018-08-22T11:58:09.323Z,30.34
2018-08-22T12:00:38.458Z,30.28
2018-08-22T12:03:07.599Z,30.24
2018-08-22T12:05:36.730Z,30.18
2018-08-22T12:08:05.881Z,30.15
2018-08-22T12:10:35.030Z,30.08
2018-08-22T12:13:05.094Z,30.24
2018-08-22T12:15:35.207Z,30.35
2018-08-22T12:18:04.342Z,30.45
2018-08-22T12:20:33.482Z,30.68
2018-08-22T12:23:02.725Z,30.91
2018-08-22T12:25:31.860Z,31.05
2018-08-22T12:28:01.010Z,31.12
2018-08-22T12:30:30.143Z,31.15
2018-08-22T12:32:59.295Z,31.08
2018-08-22T12:35:28.443Z,31.04
2018-08-22T12:37:57.587Z,31.08
2018-08-22T12:40:26.741Z,31.15
2018-08-22T12:42:55.871Z,31.31
2018-08-22T12:45:25.047Z,31.43
2018-08-22T12:47:54.384Z,31.45
2018-08-22T12:50:23.691Z,31.50
2018-08-22T12:52:52.743Z,31.65
2018-08-22T12:55:21.882Z,31.71
2018-08-22T12:57:51.037Z,31.73
2018-08-22T13:00:20.163Z,31.76
2018-08-22T13:02:49.311Z,31.76
2018-08-22T13:05:18.526Z,31.68
2018-08-22T13:07:48.530Z,31.66
2018-08-22T13:10:18.475Z,31.53
2018-08-22T13:12:48.566Z,31.59
2018-08-22T13:15:18.583Z,31.59
2018-08-22T13:17:48.592Z,31.82
2018-08-22T13:20:18.705Z,31.71
2018-08-22T13:22:48.719Z,31.69
2018-08-22T13:25:18.868Z,31.64
2018-08-22T13:27:48.854Z,31.55
2018-08-22T13:30:18.958Z,31.45
2018-08-22T13:32:48.963Z,31.33
2018-08-22T13:35:19.967Z,31.32
2018-08-22T13:37:49.121Z,31.24
2018-08-22T13:40:19.048Z,31.16
2018-08-22T13:42:49.069Z,31.24
2018-08-22T13:45:19.079Z,31.17
2018-08-22T13:47:50.207Z,31.06
2018-08-22T13:50:19.333Z,31.07
2018-08-22T13:52:49.240Z,31.09
2018-08-22T13:55:19.346Z,31.11
2018-08-22T13:57:49.383Z,31.07
2018-08-22T14:00:19.382Z,31.21
2018-08-22T14:02:49.406Z,31.15
2018-08-22T14:05:19.455Z,31.14
2018-08-22T14:07:49.547Z,31.17
2018-08-22T14:10:19.580Z,31.24
2018-08-22T14:12:49.583Z,31.27
2018-08-22T14:15:19.633Z,31.37
2018-08-22T14:17:49.718Z,31.43
2018-08-22T14:20:18.867Z,31.47
2018-08-22T14:22:48.017Z,31.51
2018-08-22T14:25:17.138Z,31.50
2018-08-22T14:27:46.275Z,31.43
2018-08-22T14:30:15.546Z,31.50
2018-08-22T14:32:44.680Z,31.58
2018-08-22T14:35:13.823Z,31.52
2018-08-22T14:37:42.963Z,31.48
2018-08-22T14:40:12.106Z,31.41
2018-08-22T14:42:41.234Z,31.35
2018-08-22T14:45:10.458Z,31.24
2018-08-22T14:47:39.663Z,31.17
2018-08-22T14:50:08.887Z,31.09
2018-08-22T14:52:38.334Z,31.05
2018-08-22T14:55:07.577Z,30.98
2018-08-22T14:57:36.710Z,30.96
2018-08-22T15:00:06.342Z,30.95
2018-08-22T15:02:35.673Z,30.89
2018-08-22T15:05:04.781Z,30.85
2018-08-22T15:07:33.940Z,30.78
2018-08-22T15:10:03.094Z,30.70
2018-08-22T15:12:32.242Z,30.61
2018-08-22T15:15:01.374Z,30.63
2018-08-22T15:17:30.511Z,30.59
2018-08-22T15:19:59.647Z,30.65
2018-08-22T15:22:28.792Z,30.57
2018-08-22T15:24:57.918Z,30.50
2018-08-22T15:27:27.066Z,30.37
2018-08-22T15:29:56.200Z,30.20
2018-08-22T15:32:25.817Z,29.98
2018-08-22T15:34:56.139Z,29.95
2018-08-22T15:37:25.859Z,29.97
2018-08-22T15:39:54.995Z,29.79
2018-08-22T15:42:24.135Z,29.66
2018-08-22T15:44:53.275Z,29.55
2018-08-22T15:47:22.486Z,29.52
2018-08-22T15:49:51.546Z,29.46
2018-08-22T15:52:20.700Z,29.48
2018-08-22T15:55:10.899Z,29.47
2018-08-22T15:57:57.634Z,29.40
2018-08-22T16:00:44.234Z,29.30
2018-08-22T16:03:13.373Z,29.44
2018-08-22T16:05:43.445Z,29.34
2018-08-22T16:08:13.069Z,29.39
2018-08-22T16:10:42.200Z,29.29
2018-08-22T16:13:17.677Z,29.30
2018-08-22T16:15:48.643Z,29.23
2018-08-22T16:18:18.865Z,29.22
2018-08-22T16:20:56.247Z,29.15
2018-08-22T16:23:28.551Z,29.15
2018-08-22T16:25:58.944Z,29.16
2018-08-22T16:28:34.348Z,29.16
2018-08-22T16:31:03.481Z,29.15
2018-08-22T16:33:32.632Z,29.18
2018-08-22T16:36:01.754Z,29.12
2018-08-22T16:38:30.903Z,29.09
2018-08-22T16:41:00.108Z,29.00
2018-08-22T16:43:41.153Z,28.99
2018-08-22T16:46:12.342Z,29.00
2018-08-22T16:48:42.626Z,28.99
2018-08-22T16:51:11.820Z,28.98
2018-08-22T16:53:40.949Z,29.00
2018-08-22T16:56:10.088Z,28.99
2018-08-22T16:58:39.230Z,28.99
2018-08-22T17:01:08.358Z,28.99
2018-08-22T17:03:37.506Z,29.02
2018-08-22T17:06:11.922Z,29.01
2018-08-22T17:08:41.149Z,29.04
2018-08-22T17:11:11.437Z,29.03
2018-08-22T17:13:45.626Z,29.04
2018-08-22T17:16:14.858Z,29.03
2018-08-22T17:18:44.014Z,28.99
2018-08-22T17:21:13.179Z,28.98
2018-08-22T17:23:42.655Z,29.00
2018-08-22T17:26:19.376Z,29.00
2018-08-22T17:28:53.857Z,28.97
2018-08-22T17:31:24.073Z,28.95
2018-08-22T17:33:55.226Z,28.92
2018-08-22T17:36:24.523Z,28.91
2018-08-22T17:38:55.375Z,28.90
2018-08-22T17:41:26.338Z,28.87
2018-08-22T17:44:12.394Z,28.85
2018-08-22T17:46:48.651Z,28.81
2018-08-22T17:49:17.958Z,28.79
2018-08-22T17:51:58.629Z,28.78
2018-08-22T17:54:28.027Z,28.73
2018-08-22T17:57:15.453Z,28.71
2018-08-22T17:59:45.058Z,28.65
2018-08-22T18:02:15.320Z,28.61
2018-08-22T18:05:02.203Z,28.56
2018-08-22T18:07:31.397Z,28.49
2018-08-22T18:10:02.030Z,28.46
2018-08-22T18:12:31.175Z,28.42
2018-08-22T18:15:02.257Z,28.39
2018-08-22T18:17:31.478Z,28.34
2018-08-22T18:20:00.967Z,28.29
2018-08-22T18:22:33.631Z,28.24
2018-08-22T18:25:02.782Z,28.21
2018-08-22T18:27:32.020Z,28.13
2018-08-22T18:30:01.063Z,28.05
2018-08-22T18:32:30.210Z,27.96
2018-08-22T18:35:06.023Z,27.94
2018-08-22T18:37:35.119Z,27.86
2018-08-22T18:40:21.788Z,27.82
2018-08-22T18:42:54.755Z,27.73
2018-08-22T18:45:24.594Z,27.70
2018-08-22T18:47:53.768Z,27.61
2018-08-22T18:50:22.914Z,27.55
2018-08-22T18:52:55.082Z,27.47
2018-08-22T18:55:26.538Z,27.41
2018-08-22T18:57:56.435Z,27.35
2018-08-22T19:00:25.677Z,27.33
2018-08-22T19:02:58.705Z,27.23
2018-08-22T19:05:30.649Z,27.13
2018-08-22T19:08:09.901Z,27.03
2018-08-22T19:10:40.221Z,27.01
2018-08-22T19:13:14.516Z,26.99
2018-08-22T19:15:47.038Z,26.89
2018-08-22T19:18:16.223Z,26.81
2018-08-22T19:20:45.403Z,26.72
2018-08-22T19:23:14.571Z,26.72
2018-08-22T19:25:46.706Z,26.64
2018-08-22T19:28:15.873Z,26.55
2018-08-22T19:30:45.009Z,26.57
2018-08-22T19:33:15.591Z,26.55
2018-08-22T19:35:45.357Z,26.49
2018-08-22T19:38:18.550Z,26.46
2018-08-22T19:40:47.717Z,26.45
2018-08-22T19:43:16.877Z,26.39
2018-08-22T19:45:46.057Z,26.37
2018-08-22T19:48:15.240Z,26.32
2018-08-22T19:50:44.395Z,26.24
2018-08-22T19:53:14.246Z,26.22
2018-08-22T19:55:44.371Z,26.22
2018-08-22T19:58:19.978Z,26.21
2018-08-22T20:00:49.450Z,26.15
2018-08-22T20:03:22.667Z,26.16
2018-08-22T20:05:53.143Z,26.04
2018-08-22T20:08:27.645Z,26.01
2018-08-22T20:10:57.749Z,25.93
2018-08-22T20:13:41.436Z,25.91
2018-08-22T20:16:10.587Z,25.83
2018-08-22T20:18:39.719Z,25.80
2018-08-22T20:21:15.856Z,25.81
2018-08-22T20:23:45.540Z,25.76
2018-08-22T20:26:14.751Z,25.78
2018-08-22T20:28:47.971Z,25.76
2018-08-22T20:31:17.101Z,25.65
2018-08-22T20:34:06.460Z,25.62
2018-08-22T20:36:35.657Z,25.56
2018-08-22T20:39:10.027Z,25.55
2018-08-22T20:41:39.722Z,25.51
2018-08-22T20:44:18.140Z,25.49
2018-08-22T20:46:48.479Z,25.46
2018-08-22T20:49:20.055Z,25.47
2018-08-22T20:51:49.417Z,25.45
2018-08-22T20:54:23.633Z,25.45
2018-08-22T20:56:58.161Z,25.43
2018-08-22T20:59:27.359Z,25.39
2018-08-22T21:02:01.793Z,25.40
2018-08-22T21:04:30.918Z,25.32
2018-08-22T21:07:01.073Z,25.27
2018-08-22T21:09:30.210Z,25.24
2018-08-22T21:12:00.000Z,25.19
2018-08-22T21:14:30.441Z,25.08
2018-08-22T21:16:59.611Z,25.08
2018-08-22T21:19:28.759Z,25.08
2018-08-22T21:21:57.889Z,25.05
2018-08-22T21:24:27.065Z,25.04
2018-08-22T21:26:56.371Z,24.92
2018-08-22T21:29:26.481Z,24.98
2018-08-22T21:31:55.618Z,24.95
2018-08-22T21:34:24.749Z,24.91
2018-08-22T21:36:53.904Z,24.89
2018-08-22T21:39:24.450Z,24.85
2018-08-22T21:41:53.797Z,24.78
2018-08-22T21:44:23.665Z,24.77
2018-08-22T21:47:00.967Z,24.73
2018-08-22T21:49:30.389Z,24.76
2018-08-22T21:52:01.111Z,24.71
2018-08-22T21:54:30.313Z,24.70
2018-08-22T21:56:59.483Z,24.65
2018-08-22T21:59:28.635Z,24.62
2018-08-22T22:02:03.027Z,24.62
2018-08-22T22:04:34.359Z,24.57
2018-08-22T22:07:04.695Z,24.59
2018-08-22T22:09:34.394Z,24.55
2018-08-22T22:12:04.109Z,24.50
2018-08-22T22:14:34.418Z,24.48
2018-08-22T22:17:04.341Z,24.46
2018-08-22T22:19:36.413Z,24.38
2018-08-22T22:22:05.619Z,24.33
2018-08-22T22:24:43.739Z,24.33
2018-08-22T22:27:13.327Z,24.25
2018-08-22T22:29:42.460Z,24.37
2018-08-22T22:32:13.827Z,24.27
2018-08-22T22:34:42.964Z,24.17
2018-08-22T22:37:12.106Z,24.20
2018-08-22T22:39:43.942Z,24.19
2018-08-22T22:42:18.681Z,24.21
2018-08-22T22:44:49.754Z,24.20
2018-08-22T22:47:24.302Z,24.10
2018-08-22T22:49:53.454Z,24.09
2018-08-22T22:52:43.808Z,24.06
2018-08-22T22:55:13.314Z,24.09
2018-08-22T22:57:43.729Z,24.08
2018-08-22T23:00:14.275Z,24.04
2018-08-22T23:02:44.523Z,23.97
2018-08-22T23:05:13.681Z,23.99
2018-08-22T23:07:43.495Z,23.95
2018-08-22T23:10:13.628Z,24.00
2018-08-22T23:12:45.978Z,23.94
2018-08-22T23:15:18.539Z,23.97
2018-08-22T23:17:52.219Z,23.95
2018-08-22T23:20:41.999Z,23.95
2018-08-22T23:23:30.410Z,23.87
2018-08-22T23:26:13.106Z,23.83
2018-08-22T23:28:43.339Z,23.83
2018-08-22T23:33:43.779Z,23.88
2018-08-22T23:36:12.981Z,23.85
2018-08-22T23:38:42.161Z,23.72
2018-08-22T23:41:11.471Z,23.70
2018-08-22T23:43:55.927Z,23.68
2018-08-22T23:46:25.073Z,23.66
2018-08-22T23:48:57.825Z,23.65
2018-08-22T23:51:26.967Z,23.66
2018-08-22T23:53:59.276Z,23.59
2018-08-22T23:56:29.512Z,23.53
2018-08-22T23:58:59.026Z,23.46
